Quincy, IL (62301)

2:19 PM CDT on March 30, 2017 (GMT -0500)
S 28th Street | | Change Station

Elev 610 ft 39.91 °N, 91.37 °W | Updated 5 seconds ago

Rain
Rain
95.7 °F
Feels Like
N
2.2
Wind Variable Wind from WNW
Gusts 2.2 mph

Today
High -- | Low -- °F
--% Chance of Precip.
Yesterday
High -- | Low -- °F
Precip. -- in
Pressure 29.53 in
Visibility 5.0 miles
Clouds Mostly Cloudy 300 ft
Overcast 3300 ft
Dew Point --
Humidity 85%
Rainfall 0.00 in
Snow Depth Not available.
6:52 AM 7:28 PM
Waxing Crescent, 10% visible
SPECI KUIN 301916Z AUTO 34009KT 5SM -RA BR BKN003 OVC033 12/12 A2953 RMK AO2 RAB03 CIG 003V007 P0000 T01220117
Pressure 29.53 in
Visibility 5.0 miles
Clouds Mostly Cloudy 300 ft
Overcast 3300 ft
Dew Point --
Humidity 85%
Rainfall 0.00 in
Snow Depth Not available.
6:52 AM 7:28 PM
Waxing Crescent, 10% visible
SPECI KUIN 301916Z AUTO 34009KT 5SM -RA BR BKN003 OVC033 12/12 A2953 RMK AO2 RAB03 CIG 003V007 P0000 T01220117

Get Severe Weather Alerts

Thanks for signing up!

Be on the lookout for a verification email in your inbox.

You'll start receiving the daily forecast at 8 AM.

×

10-Day Weather Forecast

Almanac

Astronomy

Mar. 30, 2017 Rise Set
Actual Time
Civil Twilight
Nautical Twilight
Astronomical Twilight
Moon
Length of Visible Light
Length of Day
Tomorrow will be .
, % of the Moon is Illuminated

Today's Extremes

State Highs State Lows

Community

WunderPhotos

Upload Photos

1,962,540 photos uploaded!

WunderBlog® & News

Nearby

Air Quality

  Air Quality AQ Index Pollutant
Not available.

Snow Depth

Station Depth Elevation

Earthquake Activity

City Distance Mag. Time & Date
Minimum magnitude displayed is 2.5.

Earthquake Activity

City Distance Mag. Time & Date
Minimum magnitude displayed is 2.5.

Coastal Water Temperatures

Place Temperature

Stations

Nearby Weather Stations

Station Location Temp. Windchill Dew Point Humidity Wind Precip. Elev Updated Type
                   

Watches & Warnings

There are currently no watches in effect.